sensor_id;sensor_type;location;lat;lon;timestamp;P1;durP1;ratioP1;P2;durP2;ratioP2
75914;SDS011;64593;51.050;13.780;2023-04-25T06:06:28;8.75;;;3.42;;
75914;SDS011;64593;51.050;13.780;2023-04-25T06:11:55;7.10;;;3.45;;
75914;SDS011;64593;51.050;13.780;2023-04-25T06:16:57;10.93;;;4.20;;
75914;SDS011;64593;51.050;13.780;2023-04-25T06:22:01;7.70;;;3.40;;
75914;SDS011;64593;51.050;13.780;2023-04-25T06:27:06;6.93;;;3.22;;
75914;SDS011;64593;51.050;13.780;2023-04-25T06:32:13;11.80;;;3.72;;
75914;SDS011;64593;51.050;13.780;2023-04-25T06:37:17;9.88;;;4.07;;
75914;SDS011;64593;51.050;13.780;2023-04-25T06:42:19;7.72;;;3.60;;
75914;SDS011;64593;51.050;13.780;2023-04-25T06:47:31;7.15;;;3.22;;
75914;SDS011;64593;51.050;13.780;2023-04-25T06:52:37;5.75;;;3.15;;
75914;SDS011;64593;51.050;13.780;2023-04-25T06:57:41;13.32;;;3.63;;
75914;SDS011;64593;51.050;13.780;2023-04-25T07:03:03;9.82;;;2.88;;
75914;SDS011;64593;51.050;13.780;2023-04-25T07:08:08;5.55;;;3.00;;
75914;SDS011;64593;51.050;13.780;2023-04-25T07:13:13;5.63;;;2.60;;
75914;SDS011;64593;51.050;13.780;2023-04-25T07:18:19;5.05;;;2.55;;
75914;SDS011;64593;51.050;13.780;2023-04-25T07:23:25;5.88;;;2.58;;
75914;SDS011;64593;51.050;13.780;2023-04-25T07:28:28;7.70;;;2.58;;
75914;SDS011;64593;51.050;13.780;2023-04-25T07:33:30;7.38;;;2.97;;
75914;SDS011;64593;51.050;13.780;2023-04-25T07:38:31;9.18;;;3.30;;
75914;SDS011;64593;51.050;13.780;2023-04-25T07:43:38;9.70;;;3.28;;
75914;SDS011;64593;51.050;13.780;2023-04-25T07:48:45;6.80;;;3.17;;
75914;SDS011;64593;51.050;13.780;2023-04-25T07:53:49;7.97;;;2.90;;
75914;SDS011;64593;51.050;13.780;2023-04-25T07:58:52;5.70;;;2.33;;
75914;SDS011;64593;51.050;13.780;2023-04-25T08:03:55;5.93;;;1.80;;
75914;SDS011;64593;51.050;13.780;2023-04-25T08:09:07;7.82;;;2.67;;
75914;SDS011;64593;51.050;13.780;2023-04-25T08:14:13;7.05;;;2.40;;
75914;SDS011;64593;51.050;13.780;2023-04-25T08:19:17;4.65;;;2.30;;
75914;SDS011;64593;51.050;13.780;2023-04-25T08:24:20;4.50;;;1.85;;
75914;SDS011;64593;51.050;13.780;2023-04-25T08:29:27;7.40;;;2.22;;
75914;SDS011;64593;51.050;13.780;2023-04-25T08:34:29;6.88;;;2.10;;
75914;SDS011;64593;51.050;13.780;2023-04-25T08:39:36;7.05;;;2.88;;
75914;SDS011;64593;51.050;13.780;2023-04-25T08:45:02;6.70;;;1.80;;
75914;SDS011;64593;51.050;13.780;2023-04-25T08:50:32;4.90;;;1.45;;
75914;SDS011;64593;51.050;13.780;2023-04-25T08:55:38;5.57;;;2.22;;
75914;SDS011;64593;51.050;13.780;2023-04-25T09:00:43;9.15;;;3.13;;
75914;SDS011;64593;51.050;13.780;2023-04-25T09:05:51;9.70;;;2.80;;
75914;SDS011;64593;51.050;13.780;2023-04-25T09:10:55;7.40;;;2.72;;
75914;SDS011;64593;51.050;13.780;2023-04-25T09:16:03;3.28;;;1.52;;
75914;SDS011;64593;51.050;13.780;2023-04-25T09:21:39;8.35;;;3.13;;
75914;SDS011;64593;51.050;13.780;2023-04-25T09:26:42;8.18;;;3.15;;
75914;SDS011;64593;51.050;13.780;2023-04-25T09:31:45;7.82;;;3.38;;
75914;SDS011;64593;51.050;13.780;2023-04-25T09:36:48;7.70;;;3.08;;
75914;SDS011;64593;51.050;13.780;2023-04-25T09:42:28;6.43;;;2.53;;
75914;SDS011;64593;51.050;13.780;2023-04-25T09:47:33;13.50;;;3.42;;
75914;SDS011;64593;51.050;13.780;2023-04-25T09:52:42;8.75;;;3.50;;
75914;SDS011;64593;51.050;13.780;2023-04-25T09:57:56;6.80;;;3.13;;
75914;SDS011;64593;51.050;13.780;2023-04-25T10:03:00;7.32;;;4.95;;
75914;SDS011;64593;51.050;13.780;2023-04-25T10:08:40;9.90;;;3.88;;
75914;SDS011;64593;51.050;13.780;2023-04-25T10:13:43;7.70;;;3.50;;
75914;SDS011;64593;51.050;13.780;2023-04-25T10:18:45;6.85;;;3.13;;
75914;SDS011;64593;51.050;13.780;2023-04-25T10:23:52;3.28;;;1.85;;
75914;SDS011;64593;51.050;13.780;2023-04-25T10:28:55;4.40;;;2.70;;
75914;SDS011;64593;51.050;13.780;2023-04-25T10:34:01;7.13;;;3.22;;
75914;SDS011;64593;51.050;13.780;2023-04-25T10:39:03;7.03;;;3.20;;
75914;SDS011;64593;51.050;13.780;2023-04-25T10:44:08;7.57;;;2.75;;
75914;SDS011;64593;51.050;13.780;2023-04-25T10:49:10;8.23;;;3.35;;
75914;SDS011;64593;51.050;13.780;2023-04-25T10:54:57;6.43;;;2.90;;
75914;SDS011;64593;51.050;13.780;2023-04-25T11:00:09;8.38;;;3.17;;
75914;SDS011;64593;51.050;13.780;2023-04-25T11:05:33;5.55;;;3.20;;
75914;SDS011;64593;51.050;13.780;2023-04-25T11:10:51;7.72;;;3.97;;
75914;SDS011;64593;51.050;13.780;2023-04-25T11:16:18;6.65;;;4.00;;
75914;SDS011;64593;51.050;13.780;2023-04-25T11:21:33;8.15;;;3.53;;
75914;SDS011;64593;51.050;13.780;2023-04-25T11:26:41;10.38;;;3.72;;
75914;SDS011;64593;51.050;13.780;2023-04-25T11:31:44;10.20;;;3.50;;
75914;SDS011;64593;51.050;13.780;2023-04-25T11:37:12;11.88;;;3.65;;
75914;SDS011;64593;51.050;13.780;2023-04-25T11:42:14;9.15;;;2.65;;
75914;SDS011;64593;51.050;13.780;2023-04-25T11:47:16;7.47;;;2.53;;
75914;SDS011;64593;51.050;13.780;2023-04-25T11:52:45;9.88;;;1.90;;
75914;SDS011;64593;51.050;13.780;2023-04-25T11:57:53;5.85;;;1.20;;
75914;SDS011;64593;51.050;13.780;2023-04-25T12:03:22;4.75;;;1.50;;
75914;SDS011;64593;51.050;13.780;2023-04-25T12:08:28;4.75;;;1.45;;
75914;SDS011;64593;51.050;13.780;2023-04-25T12:13:55;7.65;;;2.10;;
75914;SDS011;64593;51.050;13.780;2023-04-25T12:19:24;6.28;;;1.48;;
75914;SDS011;64593;51.050;13.780;2023-04-25T12:24:27;4.88;;;1.45;;
75914;SDS011;64593;51.050;13.780;2023-04-25T12:29:30;5.07;;;2.25;;
75914;SDS011;64593;51.050;13.780;2023-04-25T12:34:48;8.73;;;1.90;;
75914;SDS011;64593;51.050;13.780;2023-04-25T12:40:15;8.50;;;1.95;;
75914;SDS011;64593;51.050;13.780;2023-04-25T12:45:17;8.98;;;2.70;;
75914;SDS011;64593;51.050;13.780;2023-04-25T12:50:51;10.07;;;2.90;;
75914;SDS011;64593;51.050;13.780;2023-04-25T12:56:00;7.30;;;2.55;;
75914;SDS011;64593;51.050;13.780;2023-04-25T13:01:19;7.45;;;2.13;;
75914;SDS011;64593;51.050;13.780;2023-04-25T13:14:34;11.00;;;2.95;;
75914;SDS011;64593;51.050;13.780;2023-04-25T13:21:19;16.75;;;3.35;;
75914;SDS011;64593;51.050;13.780;2023-04-25T13:33:57;18.70;;;3.95;;
75914;SDS011;64593;51.050;13.780;2023-04-25T13:39:42;12.15;;;3.38;;
75914;SDS011;64593;51.050;13.780;2023-04-25T13:45:47;20.77;;;3.10;;
75914;SDS011;64593;51.050;13.780;2023-04-25T13:51:57;21.25;;;3.13;;
75914;SDS011;64593;51.050;13.780;2023-04-25T13:57:46;11.20;;;2.42;;
75914;SDS011;64593;51.050;13.780;2023-04-25T14:02:48;11.77;;;3.47;;
75914;SDS011;64593;51.050;13.780;2023-04-25T14:07:58;16.20;;;2.63;;
75914;SDS011;64593;51.050;13.780;2023-04-25T14:13:06;11.57;;;2.88;;
75914;SDS011;64593;51.050;13.780;2023-04-25T14:18:11;12.73;;;2.88;;
75914;SDS011;64593;51.050;13.780;2023-04-25T14:23:13;14.38;;;2.58;;
75914;SDS011;64593;51.050;13.780;2023-04-25T14:28:40;11.27;;;2.75;;
75914;SDS011;64593;51.050;13.780;2023-04-25T14:34:07;11.80;;;2.83;;
75914;SDS011;64593;51.050;13.780;2023-04-25T14:39:09;10.60;;;2.60;;
75914;SDS011;64593;51.050;13.780;2023-04-25T14:44:36;13.23;;;2.92;;
75914;SDS011;64593;51.050;13.780;2023-04-25T14:50:03;15.20;;;3.10;;
75914;SDS011;64593;51.050;13.780;2023-04-25T14:55:06;10.52;;;2.63;;
75914;SDS011;64593;51.050;13.780;2023-04-25T15:00:34;13.02;;;2.55;;
75914;SDS011;64593;51.050;13.780;2023-04-25T15:06:02;14.45;;;2.40;;
75914;SDS011;64593;51.050;13.780;2023-04-25T15:11:04;10.43;;;3.05;;
75914;SDS011;64593;51.050;13.780;2023-04-25T15:16:06;7.60;;;1.73;;
75914;SDS011;64593;51.050;13.780;2023-04-25T15:21:08;11.57;;;2.53;;
75914;SDS011;64593;51.050;13.780;2023-04-25T15:26:11;8.27;;;1.75;;
75914;SDS011;64593;51.050;13.780;2023-04-25T15:31:39;7.28;;;1.45;;
75914;SDS011;64593;51.050;13.780;2023-04-25T15:36:41;7.90;;;1.63;;
75914;SDS011;64593;51.050;13.780;2023-04-25T15:42:09;9.15;;;2.00;;
75914;SDS011;64593;51.050;13.780;2023-04-25T15:47:11;8.73;;;1.73;;
75914;SDS011;64593;51.050;13.780;2023-04-25T15:52:13;5.47;;;1.10;;
75914;SDS011;64593;51.050;13.780;2023-04-25T15:57:15;6.07;;;1.58;;
75914;SDS011;64593;51.050;13.780;2023-04-25T16:02:45;8.43;;;1.30;;
75914;SDS011;64593;51.050;13.780;2023-04-25T16:07:48;10.35;;;1.60;;
75914;SDS011;64593;51.050;13.780;2023-04-25T16:12:54;11.57;;;1.23;;
75914;SDS011;64593;51.050;13.780;2023-04-25T16:17:56;6.78;;;1.50;;
75914;SDS011;64593;51.050;13.780;2023-04-25T16:23:23;9.77;;;1.75;;
75914;SDS011;64593;51.050;13.780;2023-04-25T16:28:52;7.88;;;1.55;;
75914;SDS011;64593;51.050;13.780;2023-04-25T16:34:19;8.10;;;1.88;;
75914;SDS011;64593;51.050;13.780;2023-04-25T16:39:49;4.80;;;1.33;;
75914;SDS011;64593;51.050;13.780;2023-04-25T16:44:51;6.78;;;1.80;;
75914;SDS011;64593;51.050;13.780;2023-04-25T16:50:02;6.90;;;1.05;;
75914;SDS011;64593;51.050;13.780;2023-04-25T16:55:04;5.95;;;1.27;;
75914;SDS011;64593;51.050;13.780;2023-04-25T17:00:33;4.78;;;1.20;;
75914;SDS011;64593;51.050;13.780;2023-04-25T17:05:35;4.65;;;1.30;;
75914;SDS011;64593;51.050;13.780;2023-04-25T17:11:15;5.97;;;1.20;;
75914;SDS011;64593;51.050;13.780;2023-04-25T17:16:42;6.85;;;1.55;;
75914;SDS011;64593;51.050;13.780;2023-04-25T17:21:44;6.45;;;1.27;;
75914;SDS011;64593;51.050;13.780;2023-04-25T17:27:11;5.15;;;1.40;;
75914;SDS011;64593;51.050;13.780;2023-04-25T17:32:12;9.18;;;1.67;;
75914;SDS011;64593;51.050;13.780;2023-04-25T17:37:42;10.07;;;1.65;;
75914;SDS011;64593;51.050;13.780;2023-04-25T17:42:45;5.97;;;1.77;;
75914;SDS011;64593;51.050;13.780;2023-04-25T17:47:47;7.30;;;1.35;;
75914;SDS011;64593;51.050;13.780;2023-04-25T17:52:49;8.48;;;1.70;;
75914;SDS011;64593;51.050;13.780;2023-04-25T17:57:52;6.20;;;2.20;;
75914;SDS011;64593;51.050;13.780;2023-04-25T18:03:19;4.68;;;1.33;;
75914;SDS011;64593;51.050;13.780;2023-04-25T18:08:22;9.82;;;1.40;;
75914;SDS011;64593;51.050;13.780;2023-04-25T18:13:24;10.45;;;1.58;;
75914;SDS011;64593;51.050;13.780;2023-04-25T18:18:26;4.95;;;1.65;;
75914;SDS011;64593;51.050;13.780;2023-04-25T18:23:33;4.78;;;1.27;;
75914;SDS011;64593;51.050;13.780;2023-04-25T18:29:01;4.35;;;1.58;;
75914;SDS011;64593;51.050;13.780;2023-04-25T18:34:06;4.47;;;1.30;;
75914;SDS011;64593;51.050;13.780;2023-04-25T18:44:40;3.30;;;1.23;;
75914;SDS011;64593;51.050;13.780;2023-04-25T18:49:43;7.50;;;2.00;;
75914;SDS011;64593;51.050;13.780;2023-04-25T18:54:46;5.30;;;1.50;;
75914;SDS011;64593;51.050;13.780;2023-04-25T18:59:48;5.93;;;1.35;;
75914;SDS011;64593;51.050;13.780;2023-04-25T19:05:14;7.30;;;1.45;;
75914;SDS011;64593;51.050;13.780;2023-04-25T19:10:19;5.00;;;1.35;;
75914;SDS011;64593;51.050;13.780;2023-04-25T19:15:21;9.90;;;1.95;;
75914;SDS011;64593;51.050;13.780;2023-04-25T19:20:49;5.18;;;1.20;;
75914;SDS011;64593;51.050;13.780;2023-04-25T19:25:51;6.38;;;1.42;;
75914;SDS011;64593;51.050;13.780;2023-04-25T19:30:53;6.10;;;1.45;;
75914;SDS011;64593;51.050;13.780;2023-04-25T19:36:23;4.45;;;1.08;;
75914;SDS011;64593;51.050;13.780;2023-04-25T19:41:25;4.40;;;1.55;;
75914;SDS011;64593;51.050;13.780;2023-04-25T19:46:52;8.18;;;1.70;;
75914;SDS011;64593;51.050;13.780;2023-04-25T19:51:57;9.27;;;1.77;;
75914;SDS011;64593;51.050;13.780;2023-04-25T19:57:24;9.00;;;1.60;;
75914;SDS011;64593;51.050;13.780;2023-04-25T20:02:28;12.00;;;2.30;;
75914;SDS011;64593;51.050;13.780;2023-04-25T20:07:31;10.18;;;1.85;;
75914;SDS011;64593;51.050;13.780;2023-04-25T20:12:58;6.63;;;1.50;;
75914;SDS011;64593;51.050;13.780;2023-04-25T20:18:28;5.95;;;1.40;;
75914;SDS011;64593;51.050;13.780;2023-04-25T20:23:30;8.65;;;2.00;;
75914;SDS011;64593;51.050;13.780;2023-04-25T20:28:58;6.82;;;1.85;;
75914;SDS011;64593;51.050;13.780;2023-04-25T20:34:27;13.57;;;1.70;;
75914;SDS011;64593;51.050;13.780;2023-04-25T20:40:04;8.35;;;1.50;;
75914;SDS011;64593;51.050;13.780;2023-04-25T20:45:34;8.50;;;1.42;;
75914;SDS011;64593;51.050;13.780;2023-04-25T20:50:52;8.65;;;1.70;;
75914;SDS011;64593;51.050;13.780;2023-04-25T20:56:22;6.70;;;1.90;;
75914;SDS011;64593;51.050;13.780;2023-04-25T21:01:51;6.38;;;1.70;;
75914;SDS011;64593;51.050;13.780;2023-04-25T21:13:11;12.63;;;1.75;;
75914;SDS011;64593;51.050;13.780;2023-04-25T21:18:24;5.05;;;1.30;;
75914;SDS011;64593;51.050;13.780;2023-04-25T21:23:40;3.08;;;1.27;;
75914;SDS011;64593;51.050;13.780;2023-04-25T21:28:44;4.40;;;1.92;;
75914;SDS011;64593;51.050;13.780;2023-04-25T21:33:57;5.28;;;1.27;;
75914;SDS011;64593;51.050;13.780;2023-04-25T21:39:02;4.75;;;1.05;;
75914;SDS011;64593;51.050;13.780;2023-04-25T21:44:13;5.22;;;1.33;;
75914;SDS011;64593;51.050;13.780;2023-04-25T21:49:38;7.35;;;1.40;;
75914;SDS011;64593;51.050;13.780;2023-04-25T21:54:43;5.32;;;1.30;;
75914;SDS011;64593;51.050;13.780;2023-04-25T21:59:48;4.00;;;1.10;;
